Terminal Aerodrome Forecast
Issued by NWS

Home | Current Version | Previous Version | Text Only | Print | Product List | Glossary On
Versions: 1 2 3 4 5 6 7 8 9 10 11 12
000
FTUS45 KRIW 211700
TAFCOD
TAF
KCOD 211731Z 2118/2218 22007KT P6SM VCSH FEW060 BKN090
     FM212000 VRB10KT P6SM VCTS SCT070CB OVC150
     FM220200 36010KT P6SM VCSH SCT090 BKN200
     FM220700 VRB06KT P6SM SCT120 OVC200
     FM221700 VRB06G12KT P6SM VCTS SCT025CB BKN050
      AMD LTD TO CLD VIS AND WIND=

USA.gov is the U.S. government's official web portal to all federal, state and local government web resources and services.